Estación Meteorológica Peña el Pijo (Robertgarden) [ 05/30/17 13:05:20 CEST ]

Fecha Hora Presion(HPa) Temp (°C) Humedad % Rocio (°C) Viento ( m/s) Direccion Lluvia 1Hora(mm) Lluvia 24H(mm) LLuvia Total(mm)
2017-Apr-03 01:01:25 1011.600 4.4 60 -2.7         1357.67
2017-Apr-03 02:01:48 1011.400 3.6 63 -2.8         1357.67
2017-Apr-03 03:01:43 1011.400 2.8 65 -3.1         1357.67
2017-Apr-03 04:01:41 1011.300 2.4 67 -3.1         1357.67
2017-Apr-03 05:01:46 1011.300 1.8 68 -3.5         1357.67
2017-Apr-03 06:01:45 1011.000 1.3 70 -3.6         1357.67
2017-Apr-03 07:02:02 1011.500 0.3 73 -4.0         1357.67
2017-Apr-03 08:01:43 1011.900 -0.1 74 -4.2         1357.67
2017-Apr-03 09:01:47 1011.800 3.3 77 -0.3         1357.67
2017-Apr-03 10:01:43 1012.000 10.7 55 2.0         1357.67
2017-Apr-03 11:01:51 1012.100 13.8 42 1.1 0.8 SE     1357.67
2017-Apr-03 12:01:50 1012.000 17.8 34 1.6         1357.67
2017-Apr-03 13:01:57 1011.900 19.3 31 1.7         1357.67
2017-Apr-03 14:01:53 1011.600 20.0 28 0.8         1357.67
2017-Apr-03 15:01:39 1011.400 19.5 29 0.9         1357.67
2017-Apr-03 16:01:47 1011.300 20.0 29 1.4 2.9 SSE     1357.67
2017-Apr-03 17:01:59 1011.100 20.9 29 2.1         1357.67
2017-Apr-03 18:01:58 1011.300 18.9 31 1.4         1357.67
2017-Apr-03 19:01:55 1011.400 18.2 34 2.0         1357.67
2017-Apr-03 20:01:45 1011.700 14.9 37 0.2 0.5 SE     1357.67
2017-Apr-03 21:01:40 1012.200 12.2 46 0.8         1357.67
2017-Apr-03 22:01:48 1013.000 9.9 53 0.8         1357.67
2017-Apr-03 23:02:11 1013.800 7.5 59 0.0         1357.67

Temperatura Máxima:20°    Temperatura Mínima:
Presión Máxima:1013.800 Hpa    Presión Mínima:1011.000 Hpa


Volver